sensor_id;sensor_type;location;lat;lon;timestamp;temperature;humidity
26599;DHT22;14240;51.064;16.612;2022-07-23T00:01:18;21.50;91.60
26599;DHT22;14240;51.064;16.612;2022-07-23T00:03:44;21.50;91.60
26599;DHT22;14240;51.064;16.612;2022-07-23T00:06:10;21.50;91.60
26599;DHT22;14240;51.064;16.612;2022-07-23T00:08:36;21.50;91.70
26599;DHT22;14240;51.064;16.612;2022-07-23T00:11:02;21.50;91.80
26599;DHT22;14240;51.064;16.612;2022-07-23T00:13:27;21.50;91.90
26599;DHT22;14240;51.064;16.612;2022-07-23T00:15:55;21.50;92.00
26599;DHT22;14240;51.064;16.612;2022-07-23T00:18:21;21.50;92.00
26599;DHT22;14240;51.064;16.612;2022-07-23T00:20:46;21.40;92.20
26599;DHT22;14240;51.064;16.612;2022-07-23T00:23:12;21.40;92.30
26599;DHT22;14240;51.064;16.612;2022-07-23T00:25:38;21.40;92.40
26599;DHT22;14240;51.064;16.612;2022-07-23T00:28:04;21.40;92.60
26599;DHT22;14240;51.064;16.612;2022-07-23T00:30:31;21.40;92.80
26599;DHT22;14240;51.064;16.612;2022-07-23T00:32:59;21.40;92.90
26599;DHT22;14240;51.064;16.612;2022-07-23T00:35:35;21.30;93.00
26599;DHT22;14240;51.064;16.612;2022-07-23T00:38:02;21.30;93.10
26599;DHT22;14240;51.064;16.612;2022-07-23T00:40:29;21.20;93.30
26599;DHT22;14240;51.064;16.612;2022-07-23T00:42:55;21.10;93.30
26599;DHT22;14240;51.064;16.612;2022-07-23T00:45:21;21.10;93.40
26599;DHT22;14240;51.064;16.612;2022-07-23T00:47:47;21.00;93.60
26599;DHT22;14240;51.064;16.612;2022-07-23T00:50:13;20.90;93.80
26599;DHT22;14240;51.064;16.612;2022-07-23T00:52:39;20.90;93.90
26599;DHT22;14240;51.064;16.612;2022-07-23T00:55:06;20.90;93.90
26599;DHT22;14240;51.064;16.612;2022-07-23T00:57:32;20.90;94.00
26599;DHT22;14240;51.064;16.612;2022-07-23T00:59:58;20.90;94.10
26599;DHT22;14240;51.064;16.612;2022-07-23T01:02:25;20.90;94.20
26599;DHT22;14240;51.064;16.612;2022-07-23T01:04:51;20.90;94.30
26599;DHT22;14240;51.064;16.612;2022-07-23T01:07:18;20.80;94.40
26599;DHT22;14240;51.064;16.612;2022-07-23T01:09:44;20.70;94.60
26599;DHT22;14240;51.064;16.612;2022-07-23T01:12:10;20.70;94.60
26599;DHT22;14240;51.064;16.612;2022-07-23T01:14:36;20.70;94.70
26599;DHT22;14240;51.064;16.612;2022-07-23T01:17:02;20.70;94.80
26599;DHT22;14240;51.064;16.612;2022-07-23T01:19:28;20.70;95.00
26599;DHT22;14240;51.064;16.612;2022-07-23T01:21:57;20.70;95.10
26599;DHT22;14240;51.064;16.612;2022-07-23T01:24:23;20.60;95.20
26599;DHT22;14240;51.064;16.612;2022-07-23T01:26:49;20.60;95.30
26599;DHT22;14240;51.064;16.612;2022-07-23T01:29:16;20.60;95.40
26599;DHT22;14240;51.064;16.612;2022-07-23T01:31:42;20.60;95.50
26599;DHT22;14240;51.064;16.612;2022-07-23T01:34:08;20.60;95.60
26599;DHT22;14240;51.064;16.612;2022-07-23T01:36:34;20.50;95.80
26599;DHT22;14240;51.064;16.612;2022-07-23T01:39:00;20.50;95.90
26599;DHT22;14240;51.064;16.612;2022-07-23T01:41:26;20.50;96.00
26599;DHT22;14240;51.064;16.612;2022-07-23T01:43:52;20.40;96.10
26599;DHT22;14240;51.064;16.612;2022-07-23T01:46:17;20.40;96.20
26599;DHT22;14240;51.064;16.612;2022-07-23T01:48:43;20.30;96.30
26599;DHT22;14240;51.064;16.612;2022-07-23T01:51:09;20.30;96.40
26599;DHT22;14240;51.064;16.612;2022-07-23T01:53:35;20.20;96.50
26599;DHT22;14240;51.064;16.612;2022-07-23T01:56:01;20.20;96.50
26599;DHT22;14240;51.064;16.612;2022-07-23T01:58:27;20.10;96.80
26599;DHT22;14240;51.064;16.612;2022-07-23T02:00:53;20.10;97.00
26599;DHT22;14240;51.064;16.612;2022-07-23T02:03:19;20.10;97.10
26599;DHT22;14240;51.064;16.612;2022-07-23T02:05:45;20.00;97.10
26599;DHT22;14240;51.064;16.612;2022-07-23T02:08:11;20.00;97.20
26599;DHT22;14240;51.064;16.612;2022-07-23T02:10:37;19.90;97.40
26599;DHT22;14240;51.064;16.612;2022-07-23T02:13:02;19.90;97.90
26599;DHT22;14240;51.064;16.612;2022-07-23T02:15:28;20.00;97.70
26599;DHT22;14240;51.064;16.612;2022-07-23T02:17:54;19.90;97.80
26599;DHT22;14240;51.064;16.612;2022-07-23T02:20:22;19.90;97.90
26599;DHT22;14240;51.064;16.612;2022-07-23T02:22:52;19.90;98.00
26599;DHT22;14240;51.064;16.612;2022-07-23T02:25:19;19.80;98.00
26599;DHT22;14240;51.064;16.612;2022-07-23T02:27:45;19.80;98.20
26599;DHT22;14240;51.064;16.612;2022-07-23T02:30:14;19.70;98.30
26599;DHT22;14240;51.064;16.612;2022-07-23T02:32:44;19.70;98.50
26599;DHT22;14240;51.064;16.612;2022-07-23T02:35:10;19.60;98.60
26599;DHT22;14240;51.064;16.612;2022-07-23T02:37:36;19.50;98.90
26599;DHT22;14240;51.064;16.612;2022-07-23T02:40:02;19.60;99.00
26599;DHT22;14240;51.064;16.612;2022-07-23T02:42:27;19.50;99.10
26599;DHT22;14240;51.064;16.612;2022-07-23T02:44:54;19.50;99.10
26599;DHT22;14240;51.064;16.612;2022-07-23T02:47:24;19.50;99.10
26599;DHT22;14240;51.064;16.612;2022-07-23T02:49:53;19.40;99.10
26599;DHT22;14240;51.064;16.612;2022-07-23T02:52:21;19.40;99.10
26599;DHT22;14240;51.064;16.612;2022-07-23T02:54:47;19.20;99.30
26599;DHT22;14240;51.064;16.612;2022-07-23T02:57:13;19.20;99.50
26599;DHT22;14240;51.064;16.612;2022-07-23T02:59:38;19.20;99.60
26599;DHT22;14240;51.064;16.612;2022-07-23T03:02:04;19.20;99.80
26599;DHT22;14240;51.064;16.612;2022-07-23T03:04:30;19.20;99.90
26599;DHT22;14240;51.064;16.612;2022-07-23T03:06:55;19.10;99.90
26599;DHT22;14240;51.064;16.612;2022-07-23T03:09:21;19.20;99.90
26599;DHT22;14240;51.064;16.612;2022-07-23T03:11:47;19.10;99.90
26599;DHT22;14240;51.064;16.612;2022-07-23T03:14:13;19.10;99.90
26599;DHT22;14240;51.064;16.612;2022-07-23T03:16:39;19.10;99.90
26599;DHT22;14240;51.064;16.612;2022-07-23T03:19:05;19.10;99.90
26599;DHT22;14240;51.064;16.612;2022-07-23T03:21:31;19.00;99.90
26599;DHT22;14240;51.064;16.612;2022-07-23T03:23:56;19.00;99.90
26599;DHT22;14240;51.064;16.612;2022-07-23T03:26:22;19.00;99.90
26599;DHT22;14240;51.064;16.612;2022-07-23T03:28:51;19.00;99.90
26599;DHT22;14240;51.064;16.612;2022-07-23T03:31:17;19.00;99.90
26599;DHT22;14240;51.064;16.612;2022-07-23T03:33:43;19.00;99.90
26599;DHT22;14240;51.064;16.612;2022-07-23T03:36:09;18.90;99.90
26599;DHT22;14240;51.064;16.612;2022-07-23T03:38:35;19.00;99.90
26599;DHT22;14240;51.064;16.612;2022-07-23T03:41:00;19.00;99.90
26599;DHT22;14240;51.064;16.612;2022-07-23T03:43:26;19.00;99.90
26599;DHT22;14240;51.064;16.612;2022-07-23T03:45:52;18.90;99.90
26599;DHT22;14240;51.064;16.612;2022-07-23T03:48:17;18.90;99.90
26599;DHT22;14240;51.064;16.612;2022-07-23T03:50:43;18.90;99.90
26599;DHT22;14240;51.064;16.612;2022-07-23T03:53:09;18.90;99.90
26599;DHT22;14240;51.064;16.612;2022-07-23T03:55:34;18.90;99.90
26599;DHT22;14240;51.064;16.612;2022-07-23T03:58:01;19.00;99.90
26599;DHT22;14240;51.064;16.612;2022-07-23T04:00:27;19.00;99.90
26599;DHT22;14240;51.064;16.612;2022-07-23T04:02:53;19.00;99.90
26599;DHT22;14240;51.064;16.612;2022-07-23T04:05:19;18.90;99.90
26599;DHT22;14240;51.064;16.612;2022-07-23T04:07:44;18.90;99.90
26599;DHT22;14240;51.064;16.612;2022-07-23T04:10:10;18.90;99.90
26599;DHT22;14240;51.064;16.612;2022-07-23T04:12:36;18.90;99.90
26599;DHT22;14240;51.064;16.612;2022-07-23T04:15:01;18.90;99.90
26599;DHT22;14240;51.064;16.612;2022-07-23T04:17:27;18.90;99.90
26599;DHT22;14240;51.064;16.612;2022-07-23T04:19:54;19.00;99.90
26599;DHT22;14240;51.064;16.612;2022-07-23T04:22:20;19.00;99.90
26599;DHT22;14240;51.064;16.612;2022-07-23T04:24:45;19.00;99.90
26599;DHT22;14240;51.064;16.612;2022-07-23T04:27:11;19.10;99.90
26599;DHT22;14240;51.064;16.612;2022-07-23T04:29:37;19.10;99.90
26599;DHT22;14240;51.064;16.612;2022-07-23T04:32:03;19.20;99.90
26599;DHT22;14240;51.064;16.612;2022-07-23T04:34:29;19.20;99.90
26599;DHT22;14240;51.064;16.612;2022-07-23T04:36:55;19.20;99.90
26599;DHT22;14240;51.064;16.612;2022-07-23T04:39:23;19.30;99.90
26599;DHT22;14240;51.064;16.612;2022-07-23T04:41:53;19.40;99.90
26599;DHT22;14240;51.064;16.612;2022-07-23T04:44:19;19.50;99.90
26599;DHT22;14240;51.064;16.612;2022-07-23T04:46:44;19.60;99.90
26599;DHT22;14240;51.064;16.612;2022-07-23T04:49:10;19.60;99.90
26599;DHT22;14240;51.064;16.612;2022-07-23T04:51:36;19.70;99.90
26599;DHT22;14240;51.064;16.612;2022-07-23T04:54:03;19.80;99.90
26599;DHT22;14240;51.064;16.612;2022-07-23T04:56:29;19.90;99.90
26599;DHT22;14240;51.064;16.612;2022-07-23T04:58:54;20.00;99.90
26599;DHT22;14240;51.064;16.612;2022-07-23T05:01:20;20.10;99.90
26599;DHT22;14240;51.064;16.612;2022-07-23T05:03:46;20.10;99.90
26599;DHT22;14240;51.064;16.612;2022-07-23T05:06:14;20.20;99.90
26599;DHT22;14240;51.064;16.612;2022-07-23T05:08:40;20.20;99.90
26599;DHT22;14240;51.064;16.612;2022-07-23T05:11:05;20.30;99.90
26599;DHT22;14240;51.064;16.612;2022-07-23T05:13:35;20.40;99.90
26599;DHT22;14240;51.064;16.612;2022-07-23T05:16:07;20.40;99.90
26599;DHT22;14240;51.064;16.612;2022-07-23T05:18:32;20.50;99.90
26599;DHT22;14240;51.064;16.612;2022-07-23T05:20:58;20.60;99.90
26599;DHT22;14240;51.064;16.612;2022-07-23T05:23:24;20.70;99.90
26599;DHT22;14240;51.064;16.612;2022-07-23T05:25:49;20.70;99.90
26599;DHT22;14240;51.064;16.612;2022-07-23T05:28:15;20.80;99.90
26599;DHT22;14240;51.064;16.612;2022-07-23T05:30:41;20.90;99.90
26599;DHT22;14240;51.064;16.612;2022-07-23T05:33:07;20.90;99.90
26599;DHT22;14240;51.064;16.612;2022-07-23T05:35:33;21.00;99.90
26599;DHT22;14240;51.064;16.612;2022-07-23T05:37:59;21.10;99.90
26599;DHT22;14240;51.064;16.612;2022-07-23T05:40:25;21.10;99.90
26599;DHT22;14240;51.064;16.612;2022-07-23T05:42:50;21.20;99.90
26599;DHT22;14240;51.064;16.612;2022-07-23T05:45:16;21.30;99.90
26599;DHT22;14240;51.064;16.612;2022-07-23T05:47:48;21.40;99.90
26599;DHT22;14240;51.064;16.612;2022-07-23T05:50:15;21.50;99.90
26599;DHT22;14240;51.064;16.612;2022-07-23T05:52:42;21.60;99.90
26599;DHT22;14240;51.064;16.612;2022-07-23T05:55:09;21.60;99.90
26599;DHT22;14240;51.064;16.612;2022-07-23T05:57:36;21.70;99.90
26599;DHT22;14240;51.064;16.612;2022-07-23T06:00:05;21.80;99.90
26599;DHT22;14240;51.064;16.612;2022-07-23T06:02:31;21.90;99.90
26599;DHT22;14240;51.064;16.612;2022-07-23T06:04:57;21.90;99.90
26599;DHT22;14240;51.064;16.612;2022-07-23T06:07:22;22.00;99.90
26599;DHT22;14240;51.064;16.612;2022-07-23T06:09:48;22.10;99.90
26599;DHT22;14240;51.064;16.612;2022-07-23T06:12:15;22.20;99.90
26599;DHT22;14240;51.064;16.612;2022-07-23T06:14:41;22.30;99.90
26599;DHT22;14240;51.064;16.612;2022-07-23T06:17:07;22.40;99.90
26599;DHT22;14240;51.064;16.612;2022-07-23T06:19:33;22.50;99.90
26599;DHT22;14240;51.064;16.612;2022-07-23T06:21:59;22.60;99.90
26599;DHT22;14240;51.064;16.612;2022-07-23T06:24:24;22.80;99.90
26599;DHT22;14240;51.064;16.612;2022-07-23T06:26:50;23.00;99.90
26599;DHT22;14240;51.064;16.612;2022-07-23T06:29:15;23.10;99.90
26599;DHT22;14240;51.064;16.612;2022-07-23T06:31:41;23.20;99.70
26599;DHT22;14240;51.064;16.612;2022-07-23T06:34:07;23.30;99.30
26599;DHT22;14240;51.064;16.612;2022-07-23T06:36:34;23.50;98.90
26599;DHT22;14240;51.064;16.612;2022-07-23T06:39:01;23.60;98.50
26599;DHT22;14240;51.064;16.612;2022-07-23T06:41:26;23.70;98.00
26599;DHT22;14240;51.064;16.612;2022-07-23T06:43:52;23.80;97.80
26599;DHT22;14240;51.064;16.612;2022-07-23T06:46:18;23.80;97.60
26599;DHT22;14240;51.064;16.612;2022-07-23T06:48:44;23.90;97.30
26599;DHT22;14240;51.064;16.612;2022-07-23T06:51:10;23.90;97.10
26599;DHT22;14240;51.064;16.612;2022-07-23T06:53:37;24.00;96.80
26599;DHT22;14240;51.064;16.612;2022-07-23T06:56:03;24.10;96.70
26599;DHT22;14240;51.064;16.612;2022-07-23T06:58:28;24.10;96.80
26599;DHT22;14240;51.064;16.612;2022-07-23T07:00:54;24.10;96.50
26599;DHT22;14240;51.064;16.612;2022-07-23T07:03:22;24.20;96.20
26599;DHT22;14240;51.064;16.612;2022-07-23T07:05:47;24.30;95.90
26599;DHT22;14240;51.064;16.612;2022-07-23T07:08:15;24.30;95.90
26599;DHT22;14240;51.064;16.612;2022-07-23T07:10:41;24.40;95.80
26599;DHT22;14240;51.064;16.612;2022-07-23T07:13:06;24.50;95.60
26599;DHT22;14240;51.064;16.612;2022-07-23T07:15:32;24.50;95.50
26599;DHT22;14240;51.064;16.612;2022-07-23T07:17:58;24.60;95.60
26599;DHT22;14240;51.064;16.612;2022-07-23T07:20:23;24.80;95.40
26599;DHT22;14240;51.064;16.612;2022-07-23T07:22:52;24.80;95.10
26599;DHT22;14240;51.064;16.612;2022-07-23T07:25:21;24.90;95.00
26599;DHT22;14240;51.064;16.612;2022-07-23T07:27:47;25.00;95.10
26599;DHT22;14240;51.064;16.612;2022-07-23T07:30:13;25.10;94.50
26599;DHT22;14240;51.064;16.612;2022-07-23T07:32:38;25.20;94.30
26599;DHT22;14240;51.064;16.612;2022-07-23T07:35:05;25.10;94.00
26599;DHT22;14240;51.064;16.612;2022-07-23T07:37:31;25.30;94.00
26599;DHT22;14240;51.064;16.612;2022-07-23T07:39:56;25.30;93.80
26599;DHT22;14240;51.064;16.612;2022-07-23T07:42:22;25.40;93.50
26599;DHT22;14240;51.064;16.612;2022-07-23T07:44:48;25.40;93.40
26599;DHT22;14240;51.064;16.612;2022-07-23T07:47:13;25.40;93.10
26599;DHT22;14240;51.064;16.612;2022-07-23T07:49:41;25.50;93.20
26599;DHT22;14240;51.064;16.612;2022-07-23T07:52:08;25.50;93.20
26599;DHT22;14240;51.064;16.612;2022-07-23T07:54:33;25.60;93.50
26599;DHT22;14240;51.064;16.612;2022-07-23T07:56:59;25.60;93.30
26599;DHT22;14240;51.064;16.612;2022-07-23T07:59:25;25.70;93.20
26599;DHT22;14240;51.064;16.612;2022-07-23T08:01:51;25.80;92.80
26599;DHT22;14240;51.064;16.612;2022-07-23T08:04:16;25.80;93.00
26599;DHT22;14240;51.064;16.612;2022-07-23T08:06:42;25.90;92.80
26599;DHT22;14240;51.064;16.612;2022-07-23T08:09:08;25.90;92.80
26599;DHT22;14240;51.064;16.612;2022-07-23T08:11:34;26.00;92.70
26599;DHT22;14240;51.064;16.612;2022-07-23T08:13:59;26.00;92.40
26599;DHT22;14240;51.064;16.612;2022-07-23T08:16:25;26.10;92.20
26599;DHT22;14240;51.064;16.612;2022-07-23T08:18:51;26.10;92.30
26599;DHT22;14240;51.064;16.612;2022-07-23T08:21:16;26.10;92.50
26599;DHT22;14240;51.064;16.612;2022-07-23T08:23:42;26.20;92.70
26599;DHT22;14240;51.064;16.612;2022-07-23T08:26:08;26.30;92.40
26599;DHT22;14240;51.064;16.612;2022-07-23T08:28:34;26.40;92.50
26599;DHT22;14240;51.064;16.612;2022-07-23T08:30:59;26.50;92.30
26599;DHT22;14240;51.064;16.612;2022-07-23T08:33:25;26.70;91.70
26599;DHT22;14240;51.064;16.612;2022-07-23T08:35:51;26.70;91.20
26599;DHT22;14240;51.064;16.612;2022-07-23T08:38:20;26.70;91.10
26599;DHT22;14240;51.064;16.612;2022-07-23T08:40:52;26.80;91.00
26599;DHT22;14240;51.064;16.612;2022-07-23T08:43:24;26.80;90.80
26599;DHT22;14240;51.064;16.612;2022-07-23T08:45:52;26.90;90.90
26599;DHT22;14240;51.064;16.612;2022-07-23T08:48:21;26.90;90.90
26599;DHT22;14240;51.064;16.612;2022-07-23T08:50:52;26.90;90.90
26599;DHT22;14240;51.064;16.612;2022-07-23T08:53:20;27.00;90.90
26599;DHT22;14240;51.064;16.612;2022-07-23T08:55:52;27.00;91.00
26599;DHT22;14240;51.064;16.612;2022-07-23T08:58:18;27.00;90.70
26599;DHT22;14240;51.064;16.612;2022-07-23T09:00:45;27.10;91.00
26599;DHT22;14240;51.064;16.612;2022-07-23T09:03:25;27.10;90.90
26599;DHT22;14240;51.064;16.612;2022-07-23T09:05:52;27.20;90.70
26599;DHT22;14240;51.064;16.612;2022-07-23T09:08:20;27.20;90.50
26599;DHT22;14240;51.064;16.612;2022-07-23T09:21:11;27.20;91.20
26599;DHT22;14240;51.064;16.612;2022-07-23T09:23:48;27.30;93.40
26599;DHT22;14240;51.064;16.612;2022-07-23T09:26:28;27.10;94.40
26599;DHT22;14240;51.064;16.612;2022-07-23T09:31:52;26.70;95.30
26599;DHT22;14240;51.064;16.612;2022-07-23T09:34:24;26.50;95.90
26599;DHT22;14240;51.064;16.612;2022-07-23T09:36:53;26.40;96.80
26599;DHT22;14240;51.064;16.612;2022-07-23T09:41:51;26.10;96.90
26599;DHT22;14240;51.064;16.612;2022-07-23T09:44:19;26.00;96.70
26599;DHT22;14240;51.064;16.612;2022-07-23T09:46:49;25.90;97.20
26599;DHT22;14240;51.064;16.612;2022-07-23T09:49:18;25.90;98.30
26599;DHT22;14240;51.064;16.612;2022-07-23T09:51:47;25.90;98.70
26599;DHT22;14240;51.064;16.612;2022-07-23T09:54:35;25.80;99.90
26599;DHT22;14240;51.064;16.612;2022-07-23T09:57:09;25.80;99.90
26599;DHT22;14240;51.064;16.612;2022-07-23T09:59:37;25.90;99.90
26599;DHT22;14240;51.064;16.612;2022-07-23T10:02:05;25.90;99.90
26599;DHT22;14240;51.064;16.612;2022-07-23T10:04:32;26.00;99.90
26599;DHT22;14240;51.064;16.612;2022-07-23T10:07:03;26.00;99.90
26599;DHT22;14240;51.064;16.612;2022-07-23T10:09:34;26.10;99.90
26599;DHT22;14240;51.064;16.612;2022-07-23T10:12:03;26.10;99.90
26599;DHT22;14240;51.064;16.612;2022-07-23T10:14:43;26.20;99.90
26599;DHT22;14240;51.064;16.612;2022-07-23T10:17:09;26.20;99.90
26599;DHT22;14240;51.064;16.612;2022-07-23T10:19:35;26.20;99.90
26599;DHT22;14240;51.064;16.612;2022-07-23T10:24:58;26.20;99.90
26599;DHT22;14240;51.064;16.612;2022-07-23T10:32:56;26.00;99.90
26599;DHT22;14240;51.064;16.612;2022-07-23T10:38:13;25.90;99.90
26599;DHT22;14240;51.064;16.612;2022-07-23T10:40:54;25.90;99.90
26599;DHT22;14240;51.064;16.612;2022-07-23T10:43:21;25.90;99.90
26599;DHT22;14240;51.064;16.612;2022-07-23T10:45:47;25.90;99.90
26599;DHT22;14240;51.064;16.612;2022-07-23T10:48:18;25.90;99.90
26599;DHT22;14240;51.064;16.612;2022-07-23T10:53:56;25.80;99.90
26599;DHT22;14240;51.064;16.612;2022-07-23T10:59:16;25.70;99.90
26599;DHT22;14240;51.064;16.612;2022-07-23T11:01:42;25.60;99.90
26599;DHT22;14240;51.064;16.612;2022-07-23T11:04:08;25.60;99.90
26599;DHT22;14240;51.064;16.612;2022-07-23T11:11:58;25.50;99.90
26599;DHT22;14240;51.064;16.612;2022-07-23T11:17:28;25.40;99.90
26599;DHT22;14240;51.064;16.612;2022-07-23T11:22:45;25.30;99.90
26599;DHT22;14240;51.064;16.612;2022-07-23T11:25:30;25.30;99.90
26599;DHT22;14240;51.064;16.612;2022-07-23T11:28:15;25.30;99.90
26599;DHT22;14240;51.064;16.612;2022-07-23T11:30:45;25.30;99.90
26599;DHT22;14240;51.064;16.612;2022-07-23T11:35:38;25.30;99.90
26599;DHT22;14240;51.064;16.612;2022-07-23T11:38:10;25.30;99.90
26599;DHT22;14240;51.064;16.612;2022-07-23T11:40:39;25.40;99.90
26599;DHT22;14240;51.064;16.612;2022-07-23T11:43:09;25.50;99.90
26599;DHT22;14240;51.064;16.612;2022-07-23T11:45:50;25.50;99.90
26599;DHT22;14240;51.064;16.612;2022-07-23T11:48:21;25.50;99.90
26599;DHT22;14240;51.064;16.612;2022-07-23T11:50:47;25.70;99.90
26599;DHT22;14240;51.064;16.612;2022-07-23T11:53:13;25.70;99.90
26599;DHT22;14240;51.064;16.612;2022-07-23T11:55:39;25.90;99.90
26599;DHT22;14240;51.064;16.612;2022-07-23T11:58:05;25.90;99.60
26599;DHT22;14240;51.064;16.612;2022-07-23T12:00:32;26.10;99.50
26599;DHT22;14240;51.064;16.612;2022-07-23T12:02:59;26.30;99.50
26599;DHT22;14240;51.064;16.612;2022-07-23T12:05:33;26.50;99.30
26599;DHT22;14240;51.064;16.612;2022-07-23T12:08:01;26.70;98.60
26599;DHT22;14240;51.064;16.612;2022-07-23T12:10:41;26.80;98.10
26599;DHT22;14240;51.064;16.612;2022-07-23T12:13:10;27.00;97.60
26599;DHT22;14240;51.064;16.612;2022-07-23T12:15:45;27.20;97.20
26599;DHT22;14240;51.064;16.612;2022-07-23T12:18:14;27.30;96.70
26599;DHT22;14240;51.064;16.612;2022-07-23T12:20:44;27.50;95.90
26599;DHT22;14240;51.064;16.612;2022-07-23T12:23:13;27.60;95.70
26599;DHT22;14240;51.064;16.612;2022-07-23T12:25:41;27.70;94.50
26599;DHT22;14240;51.064;16.612;2022-07-23T12:28:10;27.80;94.70
26599;DHT22;14240;51.064;16.612;2022-07-23T12:30:40;28.00;94.30
26599;DHT22;14240;51.064;16.612;2022-07-23T12:33:09;28.10;93.40
26599;DHT22;14240;51.064;16.612;2022-07-23T12:35:44;28.10;94.00
26599;DHT22;14240;51.064;16.612;2022-07-23T12:38:13;28.20;93.20
26599;DHT22;14240;51.064;16.612;2022-07-23T12:40:47;28.20;93.10
26599;DHT22;14240;51.064;16.612;2022-07-23T12:43:21;28.30;93.00
26599;DHT22;14240;51.064;16.612;2022-07-23T12:45:48;28.40;92.60
26599;DHT22;14240;51.064;16.612;2022-07-23T12:48:35;28.40;92.60
26599;DHT22;14240;51.064;16.612;2022-07-23T12:51:23;28.50;92.60
26599;DHT22;14240;51.064;16.612;2022-07-23T12:53:50;28.60;92.90
26599;DHT22;14240;51.064;16.612;2022-07-23T12:56:28;28.60;92.70
26599;DHT22;14240;51.064;16.612;2022-07-23T12:58:57;28.90;91.30
26599;DHT22;14240;51.064;16.612;2022-07-23T13:01:26;29.00;90.90
26599;DHT22;14240;51.064;16.612;2022-07-23T13:03:56;29.10;90.40
26599;DHT22;14240;51.064;16.612;2022-07-23T13:06:22;29.10;89.90
26599;DHT22;14240;51.064;16.612;2022-07-23T13:08:48;29.20;89.10
26599;DHT22;14240;51.064;16.612;2022-07-23T13:11:14;29.20;88.60
26599;DHT22;14240;51.064;16.612;2022-07-23T13:13:40;29.30;88.10
26599;DHT22;14240;51.064;16.612;2022-07-23T13:16:09;29.30;87.60
26599;DHT22;14240;51.064;16.612;2022-07-23T13:18:35;29.30;86.90
26599;DHT22;14240;51.064;16.612;2022-07-23T13:21:00;29.30;86.80
26599;DHT22;14240;51.064;16.612;2022-07-23T13:23:27;29.40;86.10
26599;DHT22;14240;51.064;16.612;2022-07-23T13:25:53;29.50;85.50
26599;DHT22;14240;51.064;16.612;2022-07-23T13:28:20;29.50;85.80
26599;DHT22;14240;51.064;16.612;2022-07-23T13:30:47;29.50;85.10
26599;DHT22;14240;51.064;16.612;2022-07-23T13:33:16;29.50;85.00
26599;DHT22;14240;51.064;16.612;2022-07-23T13:35:42;29.60;84.90
26599;DHT22;14240;51.064;16.612;2022-07-23T13:38:08;29.60;85.40
26599;DHT22;14240;51.064;16.612;2022-07-23T13:40:36;29.60;85.90
26599;DHT22;14240;51.064;16.612;2022-07-23T13:43:05;29.70;85.70
26599;DHT22;14240;51.064;16.612;2022-07-23T13:45:31;29.70;84.70
26599;DHT22;14240;51.064;16.612;2022-07-23T13:47:57;29.80;85.20
26599;DHT22;14240;51.064;16.612;2022-07-23T13:50:22;29.70;84.70
26599;DHT22;14240;51.064;16.612;2022-07-23T13:52:49;29.70;84.30
26599;DHT22;14240;51.064;16.612;2022-07-23T13:55:19;29.70;84.00
26599;DHT22;14240;51.064;16.612;2022-07-23T13:57:54;29.70;83.10
26599;DHT22;14240;51.064;16.612;2022-07-23T14:00:24;29.60;83.10
26599;DHT22;14240;51.064;16.612;2022-07-23T14:02:55;29.50;83.50
26599;DHT22;14240;51.064;16.612;2022-07-23T14:05:20;29.30;83.80
26599;DHT22;14240;51.064;16.612;2022-07-23T14:07:46;29.30;84.00
26599;DHT22;14240;51.064;16.612;2022-07-23T14:10:16;29.20;84.00
26599;DHT22;14240;51.064;16.612;2022-07-23T14:12:43;29.10;84.50
26599;DHT22;14240;51.064;16.612;2022-07-23T14:15:09;29.00;85.20
26599;DHT22;14240;51.064;16.612;2022-07-23T14:17:39;29.00;85.80
26599;DHT22;14240;51.064;16.612;2022-07-23T14:20:06;28.90;86.20
26599;DHT22;14240;51.064;16.612;2022-07-23T14:22:33;28.90;86.60
26599;DHT22;14240;51.064;16.612;2022-07-23T14:24:59;28.80;86.50
26599;DHT22;14240;51.064;16.612;2022-07-23T14:27:28;28.80;86.80
26599;DHT22;14240;51.064;16.612;2022-07-23T14:29:59;28.70;86.40
26599;DHT22;14240;51.064;16.612;2022-07-23T14:32:25;28.70;86.90
26599;DHT22;14240;51.064;16.612;2022-07-23T14:34:51;28.60;86.90
26599;DHT22;14240;51.064;16.612;2022-07-23T14:37:17;28.60;87.60
26599;DHT22;14240;51.064;16.612;2022-07-23T14:39:43;28.60;88.00
26599;DHT22;14240;51.064;16.612;2022-07-23T14:42:10;28.50;87.60
26599;DHT22;14240;51.064;16.612;2022-07-23T14:44:36;28.50;88.20
26599;DHT22;14240;51.064;16.612;2022-07-23T14:47:03;28.40;88.60
26599;DHT22;14240;51.064;16.612;2022-07-23T14:49:30;28.40;89.20
26599;DHT22;14240;51.064;16.612;2022-07-23T14:51:56;28.30;90.00
26599;DHT22;14240;51.064;16.612;2022-07-23T14:54:22;28.30;90.30
26599;DHT22;14240;51.064;16.612;2022-07-23T14:56:48;28.30;90.50
26599;DHT22;14240;51.064;16.612;2022-07-23T14:59:14;28.20;90.70
26599;DHT22;14240;51.064;16.612;2022-07-23T15:01:40;28.20;90.80
26599;DHT22;14240;51.064;16.612;2022-07-23T15:04:06;28.20;90.80
26599;DHT22;14240;51.064;16.612;2022-07-23T15:06:32;28.10;90.80
26599;DHT22;14240;51.064;16.612;2022-07-23T15:08:58;28.10;91.00
26599;DHT22;14240;51.064;16.612;2022-07-23T15:11:28;28.00;91.00
26599;DHT22;14240;51.064;16.612;2022-07-23T15:13:57;28.00;90.90
26599;DHT22;14240;51.064;16.612;2022-07-23T15:16:23;27.90;91.00
26599;DHT22;14240;51.064;16.612;2022-07-23T15:18:49;27.90;91.20
26599;DHT22;14240;51.064;16.612;2022-07-23T15:21:15;27.90;91.40
26599;DHT22;14240;51.064;16.612;2022-07-23T15:23:40;27.80;91.40
26599;DHT22;14240;51.064;16.612;2022-07-23T15:26:07;27.80;91.50
26599;DHT22;14240;51.064;16.612;2022-07-23T15:28:33;27.70;91.50
26599;DHT22;14240;51.064;16.612;2022-07-23T15:30:59;27.70;91.50
26599;DHT22;14240;51.064;16.612;2022-07-23T15:33:25;27.70;91.40
26599;DHT22;14240;51.064;16.612;2022-07-23T15:35:51;27.60;91.30
26599;DHT22;14240;51.064;16.612;2022-07-23T15:38:18;27.60;91.20
26599;DHT22;14240;51.064;16.612;2022-07-23T15:40:47;27.60;90.90
26599;DHT22;14240;51.064;16.612;2022-07-23T15:43:21;27.50;90.90
26599;DHT22;14240;51.064;16.612;2022-07-23T15:45:49;27.40;91.00
26599;DHT22;14240;51.064;16.612;2022-07-23T15:48:16;27.40;91.10
26599;DHT22;14240;51.064;16.612;2022-07-23T15:50:43;27.40;91.10
26599;DHT22;14240;51.064;16.612;2022-07-23T15:53:08;27.30;91.40
26599;DHT22;14240;51.064;16.612;2022-07-23T15:55:34;27.20;91.10
26599;DHT22;14240;51.064;16.612;2022-07-23T15:58:01;27.20;91.20
26599;DHT22;14240;51.064;16.612;2022-07-23T16:00:26;27.20;91.30
26599;DHT22;14240;51.064;16.612;2022-07-23T16:02:53;27.20;91.40